KCNK/CNK METAR and TAF weather

Enter ICAO airport designator
Station Type Date Time Source
KCNK METAR 2021/09/28 02:55 UTC NOAA

KCNK 280255Z AUTO 16003KT 10SM CLR 24/13 A2985 RMK AO2 SLP093 T02390128 53009


Station Type Date Time Source
KCNK Decoded METAR 2021/09/28 02:55 UTC NOAA

Concordia, Blosser Municipal Airport, KS, United States (KCNK) 39-33-05N 097-39-02W 447M
Sep 27, 2021 - 10:55 PM EDT / 2021.09.28 0255 UTC
Wind: from the SSE (160 degrees) at 3 MPH (3 KT):0
Visibility: 10 mile(s):0
Sky conditions: clear
Temperature: 75.0 F (23.9 C)
Dew Point: 55.0 F (12.8 C)
Relative Humidity: 49%
Pressure (altimeter): 29.85 in. Hg (1010 hPa)
Pressure tendency: 0.03 inches (0.9 hPa) higher than three hours ago
ob: KCNK 280255Z AUTO 16003KT 10SM CLR 24/13 A2985 RMK AO2 SLP093 T02390128 53009
cycle: 3

Station Type Date Time Source
KCNK TAF UTC NOAA

Error!

Example: see airport list